Winsford, United Kingdom
Current Conditions -  °F | °C
As of 1:50 PM on Thursday 23 Oct 2014 (Local Time) from EGCC Reporting Station
Broken Clouds Broken Clouds  
Wind Chill: 59°   Ceiling: 2900
Heat Index: 59°   Visibility: 6mi
Dew Point: 54°   Wind: 13mph
Humidity: 82%   Direction: 180°S
Pressure: 29.94"   Gusts: NA
Location:  53.19°N, 2.52°W
Report Text: EGCC 231250Z 18011KT 150V210 9999 BKN029 BKN034 15/12 Q1014
Loading
Personal Weather Stations






























Interactive Weather Map
Tropical Storm Tracking
New forecast layout! Learn more

10-Day Weather Forecast

Advertisements
Track Severe Weather on mobile